Time;durP1;ratioP1;P1;durP2;ratioP2;P2;SDS_P1;SDS_P2;PMS_P1;PMS_P2;Temp;Humidity;BMP_temperature;BMP_pressure;BME280_temperature;BME280_humidity;BME280_pressure;Samples;Min_cycle;Max_cycle;Signal;HPM_P1;HPM_P2
2024/02/15 00:00:17;;;;;;;7.15;5.88;;;6.60;99.90;;;;;;5039573;28;20298;-73
2024/02/15 00:02:45;;;;;;;9.50;6.68;;;6.50;99.90;;;;;;5041602;28;20218;-73
2024/02/15 00:05:14;;;;;;;6.18;5.57;;;6.50;99.90;;;;;;5041144;28;20603;-74
2024/02/15 00:07:41;;;;;;;5.15;4.45;;;6.40;99.90;;;;;;5039621;28;20207;-74
2024/02/15 00:10:09;;;;;;;4.38;3.97;;;6.40;99.90;;;;;;5041423;28;20297;-74
2024/02/15 00:12:36;;;;;;;4.05;3.75;;;6.50;99.90;;;;;;5024061;28;20223;-74
2024/02/15 00:15:04;;;;;;;3.63;3.33;;;6.40;99.90;;;;;;5025182;28;20219;-73
2024/02/15 00:17:32;;;;;;;3.88;3.58;;;6.40;99.90;;;;;;5025686;28;20282;-74
2024/02/15 00:20:00;;;;;;;3.55;3.25;;;6.40;99.90;;;;;;5023167;28;20230;-74
2024/02/15 00:22:29;;;;;;;2.80;2.60;;;6.40;99.90;;;;;;5051710;28;20266;-74
2024/02/15 00:24:56;;;;;;;3.25;3.05;;;6.50;99.90;;;;;;5053665;28;20230;-74
2024/02/15 00:27:23;;;;;;;2.70;2.60;;;6.50;99.90;;;;;;5045455;28;20364;-75
2024/02/15 00:29:50;;;;;;;3.08;2.88;;;6.50;99.90;;;;;;5042714;28;20234;-74
2024/02/15 00:32:17;;;;;;;2.88;2.67;;;6.50;99.90;;;;;;5042589;28;20210;-74
2024/02/15 00:34:44;;;;;;;2.83;2.63;;;6.50;99.90;;;;;;5045469;28;20231;-74
2024/02/15 00:37:12;;;;;;;2.95;2.75;;;6.50;99.90;;;;;;5025784;28;20305;-74
2024/02/15 00:39:40;;;;;;;2.75;2.55;;;6.50;99.90;;;;;;5024773;28;20626;-73
2024/02/15 00:42:08;;;;;;;3.30;3.10;;;6.50;99.90;;;;;;5042979;28;20312;-74
2024/02/15 00:44:35;;;;;;;2.90;2.70;;;6.40;99.90;;;;;;5043206;28;20202;-74
2024/02/15 00:47:02;;;;;;;3.00;2.80;;;6.40;99.90;;;;;;5041966;28;20363;-74
2024/02/15 00:49:31;;;;;;;3.17;2.97;;;6.30;99.90;;;;;;5038371;28;20195;-74
2024/02/15 00:51:59;;;;;;;3.15;2.95;;;6.30;99.90;;;;;;5044350;28;20242;-74
2024/02/15 00:54:26;;;;;;;2.80;2.60;;;6.30;99.90;;;;;;5044144;28;20206;-74
2024/02/15 00:56:54;;;;;;;3.03;2.83;;;6.30;99.90;;;;;;5047460;28;20716;-74
2024/02/15 00:59:21;;;;;;;3.15;2.95;;;6.30;99.90;;;;;;5043000;28;20234;-73
2024/02/15 01:01:48;;;;;;;2.78;2.58;;;6.30;99.90;;;;;;5023520;28;20732;-73
2024/02/15 01:04:16;;;;;;;3.28;3.08;;;6.30;99.90;;;;;;5030087;28;20207;-74
2024/02/15 01:06:43;;;;;;;3.08;2.88;;;6.30;99.90;;;;;;5047017;28;20743;-73
2024/02/15 01:09:10;;;;;;;3.00;2.80;;;6.30;99.90;;;;;;5046162;28;20231;-74
2024/02/15 01:11:37;;;;;;;3.08;2.88;;;6.30;99.90;;;;;;5045065;28;20234;-73
2024/02/15 01:14:08;;;;;;;3.15;2.95;;;6.30;99.90;;;;;;5047040;28;20203;-74
2024/02/15 01:16:36;;;;;;;2.95;2.75;;;6.30;99.90;;;;;;5036912;28;20222;-73
2024/02/15 01:19:03;;;;;;;2.55;2.38;;;6.30;99.90;;;;;;5041583;28;20207;-73
2024/02/15 01:21:33;;;;;;;4.55;2.90;;;6.30;99.90;;;;;;5040908;28;20255;-73
2024/02/15 01:24:00;;;;;;;2.80;2.60;;;6.30;99.90;;;;;;5040727;28;20203;-73
2024/02/15 01:26:27;;;;;;;3.33;3.13;;;6.30;99.90;;;;;;5039532;28;20233;-73
2024/02/15 01:28:54;;;;;;;2.63;2.50;;;6.20;99.90;;;;;;5040794;28;20874;-73
2024/02/15 01:31:23;;;;;;;2.80;2.70;;;6.20;99.90;;;;;;5043639;28;20239;-75
2024/02/15 01:33:50;;;;;;;3.00;2.80;;;6.20;99.90;;;;;;5037016;28;20296;-75
2024/02/15 01:36:17;;;;;;;2.78;2.63;;;6.10;99.90;;;;;;5055424;28;20257;-75
2024/02/15 01:38:45;;;;;;;2.80;2.63;;;6.10;99.90;;;;;;5049149;28;20199;-75
2024/02/15 01:41:12;;;;;;;3.15;2.95;;;6.10;99.90;;;;;;5042486;28;20255;-75
2024/02/15 01:43:45;;;;;;;2.72;2.63;;;6.00;99.90;;;;;;5041539;28;20639;-75
2024/02/15 01:46:13;;;;;;;2.53;2.42;;;6.00;99.90;;;;;;5041434;28;20325;-73
2024/02/15 01:48:42;;;;;;;2.67;2.58;;;6.00;99.90;;;;;;5040756;28;20218;-73
2024/02/15 01:51:12;;;;;;;2.88;2.72;;;6.00;99.90;;;;;;5040985;28;20234;-73
2024/02/15 01:53:39;;;;;;;2.78;2.63;;;6.00;99.90;;;;;;5041400;28;20226;-73
2024/02/15 01:56:08;;;;;;;2.88;2.67;;;6.00;99.90;;;;;;5036018;28;20695;-73
2024/02/15 01:58:35;;;;;;;2.72;2.63;;;6.00;99.90;;;;;;5021035;28;20203;-73
2024/02/15 02:01:03;;;;;;;2.63;2.53;;;5.90;99.90;;;;;;5037113;28;20254;-73
2024/02/15 02:03:31;;;;;;;2.50;2.30;;;5.90;99.90;;;;;;5042163;28;20242;-73
2024/02/15 02:06:00;;;;;;;3.10;2.90;;;5.90;99.90;;;;;;5038296;28;20234;-73
2024/02/15 02:08:27;;;;;;;3.22;3.03;;;5.90;99.90;;;;;;5047199;28;20230;-73
2024/02/15 02:10:54;;;;;;;2.63;2.53;;;5.80;99.90;;;;;;5037499;28;20250;-73
2024/02/15 02:13:22;;;;;;;2.72;2.53;;;5.80;99.90;;;;;;5037080;28;20253;-74
2024/02/15 02:15:49;;;;;;;2.40;2.30;;;5.80;99.90;;;;;;5022711;28;20697;-74
2024/02/15 02:18:16;;;;;;;2.70;2.60;;;5.80;99.90;;;;;;5041069;28;20225;-74
2024/02/15 02:20:43;;;;;;;3.20;3.00;;;5.70;99.90;;;;;;5042758;28;20251;-73
2024/02/15 02:23:18;;;;;;;2.95;2.75;;;5.70;99.90;;;;;;5040194;28;20307;-73
2024/02/15 02:25:49;;;;;;;2.70;2.50;;;5.70;99.90;;;;;;5040601;28;20662;-73
2024/02/15 02:28:16;;;;;;;2.92;2.72;;;5.60;99.90;;;;;;5041965;28;20204;-73
2024/02/15 02:30:45;;;;;;;2.92;2.72;;;5.60;99.90;;;;;;5027372;28;20314;-73
2024/02/15 02:33:18;;;;;;;2.95;2.75;;;5.60;99.90;;;;;;5025420;28;20224;-73
2024/02/15 02:35:45;;;;;;;2.90;2.70;;;5.50;99.90;;;;;;5014495;28;20223;-73
2024/02/15 02:38:14;;;;;;;2.50;2.40;;;5.50;99.90;;;;;;5018608;28;20235;-73
2024/02/15 02:40:41;;;;;;;3.03;2.83;;;5.50;99.90;;;;;;5019830;28;20223;-73
2024/02/15 02:43:09;;;;;;;2.90;2.70;;;5.50;99.90;;;;;;5022472;28;20666;-73
2024/02/15 02:45:36;;;;;;;2.70;2.60;;;5.50;99.90;;;;;;5013551;28;20337;-73
2024/02/15 02:48:04;;;;;;;3.00;2.80;;;5.40;99.90;;;;;;5018266;28;20916;-73
2024/02/15 02:50:31;;;;;;;2.90;2.72;;;5.40;99.90;;;;;;5025772;28;20246;-73
2024/02/15 02:52:58;;;;;;;2.40;2.30;;;5.40;99.90;;;;;;5033247;28;20636;-73
2024/02/15 02:55:27;;;;;;;3.10;2.90;;;5.30;99.90;;;;;;5013876;28;20709;-73
2024/02/15 02:57:54;;;;;;;6.18;3.00;;;5.40;99.90;;;;;;5023761;28;20207;-72
2024/02/15 03:00:23;;;;;;;2.70;2.50;;;5.40;99.90;;;;;;5014994;28;20663;-72
2024/02/15 03:02:50;;;;;;;3.10;2.90;;;5.30;99.90;;;;;;5017362;28;20243;-72
2024/02/15 03:05:20;;;;;;;2.72;2.63;;;5.30;99.90;;;;;;5017074;28;20768;-73
2024/02/15 03:07:47;;;;;;;3.20;3.00;;;5.30;99.90;;;;;;4999567;28;20282;-72
2024/02/15 03:10:15;;;;;;;2.85;2.75;;;5.20;99.90;;;;;;5017613;28;20313;-74
2024/02/15 03:12:43;;;;;;;3.15;2.95;;;5.20;99.90;;;;;;5017281;28;20290;-74
2024/02/15 03:15:11;;;;;;;2.70;2.50;;;5.30;99.90;;;;;;5000203;28;20223;-74
2024/02/15 03:17:41;;;;;;;3.15;2.95;;;5.20;99.90;;;;;;5037131;28;20284;-74
2024/02/15 03:20:11;;;;;;;2.83;2.70;;;5.20;99.90;;;;;;5038566;28;20214;-74
2024/02/15 03:22:39;;;;;;;3.00;2.80;;;5.20;99.90;;;;;;5018381;28;20219;-74
2024/02/15 03:25:07;;;;;;;2.90;2.70;;;5.20;99.90;;;;;;5014342;28;20323;-74
2024/02/15 03:27:35;;;;;;;2.40;2.30;;;5.30;99.90;;;;;;4992300;28;20278;-74
2024/02/15 03:30:04;;;;;;;3.13;2.92;;;5.20;99.90;;;;;;5016937;28;20290;-74
2024/02/15 03:32:31;;;;;;;2.97;2.78;;;5.30;99.90;;;;;;5014771;28;20215;-74
2024/02/15 03:35:00;;;;;;;3.50;3.20;;;5.30;99.90;;;;;;4998022;28;20227;-74
2024/02/15 03:37:27;;;;;;;2.92;2.78;;;5.30;99.90;;;;;;5014553;28;20286;-74
2024/02/15 03:39:54;;;;;;;2.45;2.35;;;5.30;99.90;;;;;;4989592;28;20207;-73
2024/02/15 03:42:22;;;;;;;3.10;2.90;;;5.30;99.90;;;;;;4990754;28;20301;-74
2024/02/15 03:44:49;;;;;;;2.70;2.60;;;5.30;99.90;;;;;;5018928;28;20671;-74
2024/02/15 03:47:16;;;;;;;3.00;2.80;;;5.30;99.90;;;;;;5013638;28;20220;-74
2024/02/15 03:49:43;;;;;;;3.17;3.00;;;5.30;99.90;;;;;;5019152;28;20292;-74
2024/02/15 03:52:11;;;;;;;2.78;2.58;;;5.30;99.90;;;;;;5016701;28;20802;-74
2024/02/15 03:54:38;;;;;;;2.83;2.63;;;5.30;99.90;;;;;;5018031;28;20231;-74
2024/02/15 03:57:06;;;;;;;3.00;2.80;;;5.30;99.90;;;;;;5006244;28;20341;-74
2024/02/15 03:59:34;;;;;;;2.28;2.17;;;5.30;99.90;;;;;;5017218;28;20282;-74
2024/02/15 04:02:02;;;;;;;2.40;2.30;;;5.20;99.90;;;;;;5003260;28;20231;-72
2024/02/15 04:04:30;;;;;;;2.65;2.55;;;5.20;99.90;;;;;;5018273;28;20210;-72
2024/02/15 04:06:58;;;;;;;2.65;2.55;;;5.20;99.90;;;;;;5032348;28;20631;-72
2024/02/15 04:09:26;;;;;;;3.17;2.97;;;5.20;99.90;;;;;;5016609;28;20315;-72
2024/02/15 04:11:53;;;;;;;3.20;3.00;;;5.10;99.90;;;;;;5018934;28;20235;-72
2024/02/15 04:14:21;;;;;;;2.90;2.70;;;5.10;99.90;;;;;;5015974;28;20745;-72
2024/02/15 04:16:48;;;;;;;2.53;2.42;;;5.10;99.90;;;;;;5015752;28;20300;-72
2024/02/15 04:19:15;;;;;;;2.95;2.85;;;5.10;99.90;;;;;;5026860;28;20241;-72
2024/02/15 04:21:43;;;;;;;2.83;2.72;;;5.10;99.90;;;;;;5014190;28;20231;-72
2024/02/15 04:24:10;;;;;;;3.28;3.08;;;5.10;99.90;;;;;;4997886;28;20220;-72
2024/02/15 04:26:39;;;;;;;3.20;3.00;;;5.10;99.90;;;;;;5013438;28;20302;-72
2024/02/15 04:29:08;;;;;;;3.28;3.00;;;5.10;99.90;;;;;;4996050;28;20231;-72
2024/02/15 04:31:39;;;;;;;3.33;3.13;;;5.10;99.90;;;;;;4982824;28;20215;-72
2024/02/15 04:34:06;;;;;;;3.42;2.78;;;5.10;99.90;;;;;;4999527;28;20678;-73
2024/02/15 04:36:34;;;;;;;3.75;3.55;;;5.10;99.90;;;;;;4996014;28;20489;-74
2024/02/15 04:39:02;;;;;;;3.00;2.80;;;5.00;99.90;;;;;;5012278;28;20295;-73
2024/02/15 04:41:29;;;;;;;3.33;3.13;;;5.00;99.90;;;;;;5017321;28;20294;-73
2024/02/15 04:43:58;;;;;;;2.90;2.78;;;5.00;99.90;;;;;;5001795;28;20219;-74
2024/02/15 04:46:25;;;;;;;2.80;2.70;;;5.00;99.90;;;;;;5019176;28;20286;-73
2024/02/15 04:48:53;;;;;;;2.90;2.80;;;5.00;99.90;;;;;;5019344;28;20290;-72
2024/02/15 04:51:20;;;;;;;2.80;2.70;;;5.00;99.90;;;;;;5017631;28;20307;-72
2024/02/15 04:53:49;;;;;;;2.80;2.70;;;5.00;99.90;;;;;;5020469;28;20283;-72
2024/02/15 04:56:16;;;;;;;2.97;2.78;;;4.90;99.90;;;;;;5017985;28;20228;-73
2024/02/15 04:58:47;;;;;;;2.97;2.78;;;4.90;99.90;;;;;;5015958;28;20204;-73
2024/02/15 05:01:17;;;;;;;3.17;2.97;;;4.90;99.90;;;;;;5018114;28;20228;-73
2024/02/15 05:03:45;;;;;;;3.28;3.08;;;4.90;99.90;;;;;;5020806;28;20310;-73
2024/02/15 05:06:13;;;;;;;3.08;2.88;;;4.90;99.90;;;;;;5017623;28;20232;-73
2024/02/15 05:08:42;;;;;;;2.95;2.75;;;4.80;99.90;;;;;;5026884;28;20287;-73
2024/02/15 05:11:14;;;;;;;3.25;3.05;;;4.80;99.90;;;;;;5021259;28;20618;-73
2024/02/15 05:13:41;;;;;;;2.85;2.75;;;4.80;99.90;;;;;;5020314;28;20274;-73
2024/02/15 05:16:08;;;;;;;2.80;2.60;;;4.80;99.90;;;;;;5016277;28;20255;-73
2024/02/15 05:18:37;;;;;;;3.03;2.83;;;4.80;99.90;;;;;;5017531;28;20200;-73
2024/02/15 05:21:08;;;;;;;3.05;2.90;;;4.70;99.90;;;;;;5037388;28;20236;-73
2024/02/15 05:23:36;;;;;;;3.22;3.03;;;4.80;99.90;;;;;;5024353;28;20270;-73
2024/02/15 05:26:04;;;;;;;3.00;2.90;;;4.80;99.90;;;;;;5017855;28;20316;-73
2024/02/15 05:28:32;;;;;;;3.10;2.90;;;4.70;99.90;;;;;;4998624;28;20238;-73
2024/02/15 05:31:14;;;;;;;3.80;3.03;;;4.70;99.90;;;;;;5018449;28;21684;-73
2024/02/15 05:33:43;;;;;;;2.75;2.65;;;4.80;99.90;;;;;;5019267;28;20226;-73
2024/02/15 05:36:11;;;;;;;2.90;2.70;;;4.80;99.90;;;;;;5014026;28;20289;-73
2024/02/15 05:38:38;;;;;;;2.95;2.83;;;4.90;99.90;;;;;;5021889;28;20200;-73
2024/02/15 05:41:07;;;;;;;3.08;2.88;;;4.90;99.90;;;;;;5016762;28;20304;-73
2024/02/15 05:43:36;;;;;;;3.25;3.05;;;4.90;99.90;;;;;;5022805;28;20211;-73
2024/02/15 05:46:04;;;;;;;3.17;2.88;;;4.90;99.90;;;;;;5015878;28;20779;-73
2024/02/15 05:48:31;;;;;;;2.90;2.70;;;4.90;99.90;;;;;;5016505;28;20200;-73
2024/02/15 05:51:00;;;;;;;3.00;2.80;;;4.80;99.90;;;;;;5016317;28;20273;-73
2024/02/15 05:53:28;;;;;;;3.08;2.88;;;4.70;99.90;;;;;;5016769;28;20358;-73
2024/02/15 05:55:57;;;;;;;3.10;2.90;;;4.70;99.90;;;;;;5016503;28;20822;-73
2024/02/15 05:58:24;;;;;;;3.22;3.03;;;4.70;99.90;;;;;;5017924;28;20195;-73
2024/02/15 06:00:52;;;;;;;3.13;2.92;;;4.70;99.90;;;;;;5017240;28;20235;-74
2024/02/15 06:03:22;;;;;;;2.88;2.72;;;4.70;99.90;;;;;;5020814;28;20835;-74
2024/02/15 06:05:48;;;;;;;3.45;3.20;;;4.80;99.90;;;;;;5017259;28;20231;-73
2024/02/15 06:08:17;;;;;;;2.90;2.70;;;4.80;99.90;;;;;;5017074;28;20231;-73
2024/02/15 06:10:46;;;;;;;3.40;3.20;;;4.90;99.90;;;;;;5012242;28;20230;-72
2024/02/15 06:13:14;;;;;;;3.08;2.88;;;4.80;99.90;;;;;;5019677;28;20278;-73
2024/02/15 06:15:41;;;;;;;2.85;2.75;;;4.80;99.90;;;;;;5018497;28;20235;-73
2024/02/15 06:18:10;;;;;;;3.30;3.10;;;4.80;99.90;;;;;;5021030;28;20231;-73
2024/02/15 06:20:38;;;;;;;3.22;3.03;;;4.80;99.90;;;;;;5013931;28;20232;-73
2024/02/15 06:23:07;;;;;;;2.83;2.72;;;4.80;99.90;;;;;;5016334;28;20207;-73
2024/02/15 06:25:36;;;;;;;3.15;2.95;;;4.70;99.90;;;;;;5014815;28;20223;-73
2024/02/15 06:28:13;;;;;;;2.65;2.55;;;4.70;99.90;;;;;;5013762;28;20232;-73
2024/02/15 06:41:39;;;;;;;3.45;3.25;;;5.00;99.90;;;;;;5014430;28;20247;-72
2024/02/15 06:44:06;;;;;;;3.30;3.10;;;5.00;99.90;;;;;;5018613;28;20216;-73
2024/02/15 06:46:33;;;;;;;3.13;2.92;;;5.10;99.90;;;;;;5018818;28;20310;-73
2024/02/15 06:49:00;;;;;;;3.20;3.00;;;5.20;99.90;;;;;;5013087;28;20204;-74
2024/02/15 06:51:27;;;;;;;3.20;3.00;;;5.20;99.90;;;;;;5016619;28;20240;-74
2024/02/15 06:53:55;;;;;;;3.25;3.05;;;5.20;99.90;;;;;;5013790;28;20253;-74
2024/02/15 06:56:24;;;;;;;3.00;2.90;;;5.20;99.90;;;;;;5014026;28;20713;-74
2024/02/15 06:58:53;;;;;;;3.03;2.92;;;5.20;99.90;;;;;;5013871;28;20811;-73
2024/02/15 07:01:20;;;;;;;2.92;2.75;;;5.20;99.90;;;;;;5016574;28;20223;-73
2024/02/15 07:03:47;;;;;;;2.83;2.72;;;5.20;99.90;;;;;;5015126;28;20224;-73
2024/02/15 07:06:16;;;;;;;2.95;2.80;;;5.30;99.90;;;;;;5019122;28;20763;-73
2024/02/15 07:08:43;;;;;;;3.35;3.15;;;5.30;99.90;;;;;;5022700;28;20203;-73
2024/02/15 07:11:12;;;;;;;2.78;2.67;;;5.40;99.90;;;;;;4998401;28;20704;-73
2024/02/15 07:13:39;;;;;;;2.88;2.67;;;5.40;99.90;;;;;;5014539;28;20637;-73
2024/02/15 07:16:09;;;;;;;2.55;2.45;;;5.40;99.90;;;;;;5004155;28;20232;-73
2024/02/15 07:18:36;;;;;;;3.47;3.17;;;5.50;99.90;;;;;;4998706;28;20781;-74
2024/02/15 07:21:08;;;;;;;3.33;3.13;;;5.50;99.90;;;;;;5011932;28;20307;-73
2024/02/15 07:23:35;;;;;;;3.40;3.20;;;5.60;99.90;;;;;;5014299;28;20306;-75
2024/02/15 07:26:03;;;;;;;3.40;3.20;;;5.60;99.90;;;;;;5016817;28;20293;-74
2024/02/15 07:28:30;;;;;;;3.33;3.10;;;5.60;99.90;;;;;;5016861;28;20199;-76
2024/02/15 07:30:57;;;;;;;2.85;2.65;;;5.70;99.90;;;;;;5020667;28;20302;-74
2024/02/15 07:33:26;;;;;;;3.90;3.60;;;5.90;99.90;;;;;;5003513;28;20304;-74
2024/02/15 07:35:53;;;;;;;3.35;3.15;;;6.60;99.90;;;;;;5015603;28;20252;-74
2024/02/15 07:38:22;;;;;;;3.30;2.60;;;7.30;99.90;;;;;;5017039;28;20238;-74
2024/02/15 07:40:49;;;;;;;3.42;3.20;;;8.00;99.90;;;;;;5016804;28;20309;-73
2024/02/15 07:43:16;;;;;;;3.00;2.80;;;8.60;99.90;;;;;;5048192;28;20282;-74
2024/02/15 07:45:44;;;;;;;3.03;2.83;;;9.20;99.90;;;;;;5038857;28;20219;-73
2024/02/15 07:48:11;;;;;;;3.72;3.17;;;9.90;99.90;;;;;;5017191;28;20196;-73
2024/02/15 07:50:40;;;;;;;5.47;2.50;;;10.30;99.90;;;;;;5024806;28;20231;-73
2024/02/15 07:53:08;;;;;;;3.20;2.95;;;10.70;99.90;;;;;;5031867;28;20199;-74
2024/02/15 07:55:35;;;;;;;3.70;3.40;;;11.20;99.90;;;;;;5018185;28;20227;-73
2024/02/15 07:58:02;;;;;;;4.07;3.50;;;11.40;99.90;;;;;;5018211;28;20233;-73
2024/02/15 08:00:29;;;;;;;3.75;3.40;;;11.70;99.90;;;;;;5015540;28;20219;-73
2024/02/15 08:02:59;;;;;;;3.70;3.40;;;11.60;99.90;;;;;;5016122;28;20204;-74
2024/02/15 08:05:26;;;;;;;4.18;3.75;;;11.70;99.90;;;;;;5017633;28;20223;-73
2024/02/15 08:07:57;;;;;;;4.22;3.72;;;11.80;99.90;;;;;;5017905;28;20709;-73
2024/02/15 08:10:24;;;;;;;3.65;3.35;;;11.90;99.90;;;;;;5013228;28;20218;-75
2024/02/15 08:12:52;;;;;;;3.70;3.40;;;12.10;99.90;;;;;;5013554;28;20707;-75
2024/02/15 08:15:21;;;;;;;3.88;3.58;;;11.90;99.90;;;;;;5013461;28;20760;-74
2024/02/15 08:17:48;;;;;;;3.47;3.22;;;12.00;99.90;;;;;;5042233;28;20305;-74
2024/02/15 08:20:21;;;;;;;5.43;3.58;;;12.00;99.90;;;;;;5045957;28;20811;-74
2024/02/15 08:22:48;;;;;;;3.88;3.50;;;12.30;99.90;;;;;;5047378;28;20232;-74
2024/02/15 08:25:17;;;;;;;3.17;2.97;;;12.40;99.90;;;;;;5036702;28;20694;-75
2024/02/15 08:27:49;;;;;;;3.70;3.40;;;12.60;99.90;;;;;;5041294;28;20621;-75
2024/02/15 08:30:17;;;;;;;3.55;3.00;;;12.80;99.90;;;;;;5039519;28;20222;-74
2024/02/15 08:32:45;;;;;;;4.15;3.78;;;13.00;99.90;;;;;;5035507;28;20273;-74
2024/02/15 08:35:13;;;;;;;3.55;3.25;;;13.60;99.90;;;;;;5039111;28;20318;-72
2024/02/15 08:37:41;;;;;;;5.22;3.00;;;13.80;99.90;;;;;;5040765;28;20240;-72
2024/02/15 08:40:14;;;;;;;3.45;3.08;;;13.60;99.90;;;;;;5023882;28;20737;-72
2024/02/15 08:42:43;;;;;;;3.05;2.85;;;13.80;99.90;;;;;;5037054;28;20222;-71
2024/02/15 08:45:12;;;;;;;3.20;2.90;;;14.10;99.90;;;;;;5043116;28;20328;-71
2024/02/15 08:47:40;;;;;;;6.03;3.00;;;14.20;99.90;;;;;;5035157;28;20222;-73
2024/02/15 08:50:09;;;;;;;3.38;3.08;;;14.20;99.90;;;;;;5020880;28;20349;-73
2024/02/15 08:52:37;;;;;;;4.28;3.80;;;13.90;99.90;;;;;;5021705;28;20245;-74
2024/02/15 08:55:06;;;;;;;5.03;4.13;;;13.50;99.90;;;;;;5034915;28;20687;-74
2024/02/15 08:57:34;;;;;;;4.18;3.60;;;13.10;99.90;;;;;;5033586;28;20219;-72
2024/02/15 09:00:05;;;;;;;4.55;3.25;;;12.90;99.90;;;;;;5039973;28;20213;-72
2024/02/15 09:02:33;;;;;;;3.53;3.22;;;13.10;99.90;;;;;;5034716;28;20214;-72
2024/02/15 09:05:00;;;;;;;3.40;3.10;;;13.40;99.90;;;;;;5040186;28;20273;-72
2024/02/15 09:07:27;;;;;;;5.20;3.70;;;13.60;99.90;;;;;;5050767;28;20230;-72
2024/02/15 09:09:55;;;;;;;4.40;3.50;;;14.00;99.90;;;;;;5039877;28;20195;-72
2024/02/15 09:12:22;;;;;;;3.78;3.30;;;14.30;99.90;;;;;;5034102;28;20297;-72
2024/02/15 09:14:49;;;;;;;3.65;3.00;;;14.50;99.90;;;;;;5035515;28;20198;-72
2024/02/15 09:17:17;;;;;;;3.00;2.70;;;14.80;99.90;;;;;;5037884;28;20316;-72
2024/02/15 09:19:48;;;;;;;4.07;3.70;;;15.00;99.90;;;;;;5042530;28;20289;-72
2024/02/15 09:22:15;;;;;;;3.47;3.17;;;15.20;99.90;;;;;;5016533;28;20310;-72
2024/02/15 09:24:43;;;;;;;4.13;3.08;;;15.10;99.90;;;;;;5018125;28;20307;-72
2024/02/15 09:27:11;;;;;;;6.47;3.35;;;14.90;99.90;;;;;;5013689;28;20220;-72
2024/02/15 09:29:40;;;;;;;3.25;2.95;;;14.90;99.90;;;;;;5018706;28;20322;-72
2024/02/15 09:32:07;;;;;;;3.40;3.10;;;15.00;99.90;;;;;;5017875;28;20228;-72
2024/02/15 09:34:35;;;;;;;3.60;2.90;;;15.30;99.90;;;;;;5016263;28;20223;-73
2024/02/15 09:37:02;;;;;;;3.45;3.15;;;15.40;99.90;;;;;;5036686;28;20365;-72
2024/02/15 09:39:31;;;;;;;3.00;2.70;;;15.30;99.90;;;;;;5032325;28;20784;-73
2024/02/15 09:41:59;;;;;;;3.40;2.90;;;14.90;99.90;;;;;;5034791;28;20307;-73
2024/02/15 09:44:28;;;;;;;5.63;2.70;;;14.80;99.90;;;;;;5037742;28;20211;-73
2024/02/15 09:47:03;;;;;;;2.55;2.35;;;15.00;99.90;;;;;;5034691;28;20225;-72
2024/02/15 09:49:31;;;;;;;4.50;2.55;;;15.30;99.90;;;;;;5038416;28;20294;-72
2024/02/15 09:52:00;;;;;;;2.60;2.40;;;15.40;99.90;;;;;;5034369;28;20550;-72
2024/02/15 09:54:27;;;;;;;3.63;2.65;;;15.60;99.90;;;;;;5029681;28;20195;-73
2024/02/15 09:56:55;;;;;;;2.90;2.70;;;15.90;99.90;;;;;;5031876;28;20951;-76
2024/02/15 09:59:22;;;;;;;2.47;2.22;;;16.00;99.90;;;;;;5033280;28;20288;-75
2024/02/15 10:01:50;;;;;;;3.17;2.88;;;16.40;99.90;;;;;;5033287;28;20294;-75
2024/02/15 10:04:17;;;;;;;3.65;2.88;;;16.70;99.90;;;;;;5033371;28;20214;-75
2024/02/15 10:06:44;;;;;;;2.65;2.40;;;16.80;99.90;;;;;;5038389;28;20337;-74
2024/02/15 10:09:29;;;;;;;3.47;2.65;;;16.90;99.90;;;;;;5018610;28;20235;-74
2024/02/15 10:11:57;;;;;;;4.20;3.13;;;16.90;99.90;;;;;;5035429;28;20225;-75
2024/02/15 10:14:25;;;;;;;3.55;2.70;;;17.10;99.90;;;;;;5033588;28;20195;-76
2024/02/15 10:16:53;;;;;;;2.80;2.47;;;17.00;99.90;;;;;;5035217;28;20251;-75
2024/02/15 10:19:24;;;;;;;2.72;2.53;;;17.10;99.90;;;;;;5034961;28;20265;-75
2024/02/15 10:21:52;;;;;;;4.80;2.40;;;16.90;99.90;;;;;;5053313;28;20736;-75
2024/02/15 10:24:20;;;;;;;2.97;2.40;;;16.60;99.90;;;;;;5032689;28;20828;-75
2024/02/15 10:26:49;;;;;;;5.85;2.47;;;16.80;99.90;;;;;;5023347;28;20247;-75
2024/02/15 10:29:17;;;;;;;2.33;2.13;;;16.80;99.90;;;;;;5021420;28;20253;-74
2024/02/15 10:31:54;;;;;;;3.15;2.55;;;16.90;99.90;;;;;;5012748;28;20226;-74
2024/02/15 10:34:21;;;;;;;2.05;1.95;;;16.60;99.90;;;;;;5018513;28;20231;-74
2024/02/15 10:36:49;;;;;;;2.53;2.33;;;16.50;99.90;;;;;;5017548;28;21401;-74
2024/02/15 10:39:19;;;;;;;2.67;2.30;;;16.50;99.90;;;;;;5013680;28;20208;-74
2024/02/15 10:41:54;;;;;;;2.85;2.65;;;16.70;99.90;;;;;;5011377;28;20231;-74
2024/02/15 10:44:23;;;;;;;2.72;2.50;;;16.90;99.90;;;;;;4993589;28;20810;-75
2024/02/15 10:46:52;;;;;;;3.58;2.70;;;16.80;99.90;;;;;;4998086;28;20235;-75
2024/02/15 10:49:19;;;;;;;4.80;2.38;;;17.10;99.90;;;;;;5016179;28;20207;-75
2024/02/15 10:51:54;;;;;;;2.42;2.22;;;17.30;99.90;;;;;;5018096;28;20278;-74
2024/02/15 10:54:34;;;;;;;4.68;2.75;;;17.10;99.90;;;;;;5019091;28;20215;-74
2024/02/15 10:57:05;;;;;;;2.63;2.42;;;17.00;99.90;;;;;;5015073;28;20250;-73
2024/02/15 10:59:37;;;;;;;2.80;2.40;;;16.70;99.90;;;;;;5008503;28;20739;-74
2024/02/15 11:02:22;;;;;;;6.13;2.50;;;16.50;99.90;;;;;;5013507;28;20304;-75
2024/02/15 11:04:56;;;;;;;4.30;2.20;;;16.30;99.90;;;;;;5012914;28;20230;-74
2024/02/15 11:07:26;;;;;;;4.05;2.17;;;16.30;99.90;;;;;;5016135;28;20301;-74
2024/02/15 11:09:53;;;;;;;2.67;2.47;;;16.50;99.90;;;;;;5010124;28;20203;-75
2024/02/15 11:12:23;;;;;;;2.30;2.10;;;16.70;99.90;;;;;;5015899;28;20319;-74
2024/02/15 11:14:51;;;;;;;3.78;2.10;;;16.70;99.90;;;;;;4996390;28;20211;-74
2024/02/15 11:17:48;;;;;;;2.42;2.22;;;16.50;99.90;;;;;;5012446;28;20228;-74
2024/02/15 11:20:50;;;;;;;4.28;2.10;;;16.40;99.90;;;;;;5018701;28;20809;-74
2024/02/15 11:23:28;;;;;;;3.30;1.90;;;16.40;99.90;;;;;;5027545;28;20205;-75
2024/02/15 11:25:59;;;;;;;3.00;2.22;;;16.50;99.90;;;;;;5028125;28;20344;-74
2024/02/15 11:28:50;;;;;;;3.30;2.28;;;16.50;99.90;;;;;;5030221;28;20859;-74
2024/02/15 11:31:54;;;;;;;4.30;2.38;;;16.30;99.90;;;;;;5029188;28;20517;-74
2024/02/15 11:34:44;;;;;;;2.22;2.03;;;16.10;99.90;;;;;;5033075;28;21230;-74
2024/02/15 11:37:51;;;;;;;2.45;2.00;;;16.40;99.90;;;;;;5029085;28;20298;-78
2024/02/15 11:40:22;;;;;;;2.85;2.22;;;16.70;99.90;;;;;;5013535;28;20225;-76
2024/02/15 11:42:50;;;;;;;2.30;2.10;;;16.80;99.90;;;;;;5014098;28;20228;-74
2024/02/15 11:45:22;;;;;;;2.30;2.10;;;16.70;99.90;;;;;;5013120;28;20235;-74
2024/02/15 11:47:52;;;;;;;2.72;2.05;;;16.70;99.90;;;;;;5014172;28;20219;-74
2024/02/15 11:50:20;;;;;;;1.95;1.85;;;16.50;99.90;;;;;;5015564;28;20231;-74
2024/02/15 11:52:48;;;;;;;2.28;2.10;;;16.50;99.90;;;;;;5015147;28;20250;-74
2024/02/15 11:55:19;;;;;;;2.13;1.85;;;16.50;99.90;;;;;;5018159;28;20258;-74
2024/02/15 11:58:02;;;;;;;2.20;2.00;;;16.50;99.90;;;;;;5013011;28;20269;-76
2024/02/15 12:19:51;;;;;;;1.95;1.85;;;16.40;99.90;;;;;;4998439;28;20316;-75
2024/02/15 12:22:21;;;;;;;6.20;1.80;;;16.60;99.90;;;;;;5011480;28;20215;-75
2024/02/15 12:24:58;;;;;;;2.42;2.10;;;16.70;99.90;;;;;;4993335;28;20204;-75
2024/02/15 12:27:27;;;;;;;2.00;1.77;;;16.60;99.90;;;;;;4991260;28;20238;-75
2024/02/15 12:29:57;;;;;;;2.25;1.70;;;16.50;99.90;;;;;;5001559;28;20820;-75
2024/02/15 12:32:27;;;;;;;1.98;1.85;;;16.40;99.90;;;;;;5000677;28;20802;-74
2024/02/15 12:35:10;;;;;;;1.70;1.60;;;16.30;99.90;;;;;;5017268;28;20223;-74
2024/02/15 12:37:37;;;;;;;1.80;1.70;;;16.50;99.90;;;;;;5010766;28;20260;-74
2024/02/15 12:40:15;;;;;;;2.17;1.85;;;16.60;99.90;;;;;;4994070;28;20204;-74
2024/02/15 12:42:43;;;;;;;1.98;1.85;;;16.40;99.90;;;;;;5014331;28;20612;-74
2024/02/15 12:45:20;;;;;;;1.70;1.60;;;16.40;99.90;;;;;;5009311;28;20232;-74
2024/02/15 12:47:49;;;;;;;1.80;1.70;;;16.40;99.90;;;;;;5014691;28;20223;-74
2024/02/15 12:50:17;;;;;;;1.88;1.75;;;16.60;99.90;;;;;;5034473;28;20239;-74
2024/02/15 12:52:47;;;;;;;1.90;1.80;;;16.80;99.90;;;;;;5017798;28;20865;-74
2024/02/15 12:55:16;;;;;;;2.03;1.80;;;16.70;99.90;;;;;;5013565;28;20266;-74
2024/02/15 12:57:45;;;;;;;2.00;1.80;;;16.50;99.90;;;;;;5017575;28;20266;-74
2024/02/15 13:00:17;;;;;;;2.13;1.90;;;16.50;99.90;;;;;;5010739;28;20227;-75
2024/02/15 13:02:45;;;;;;;2.05;1.85;;;16.50;99.90;;;;;;5016846;28;20354;-74
2024/02/15 13:05:14;;;;;;;1.90;1.75;;;16.70;99.90;;;;;;5004414;28;20870;-74
2024/02/15 13:07:42;;;;;;;1.73;1.60;;;16.70;99.90;;;;;;5014863;28;20228;-74
2024/02/15 13:10:10;;;;;;;1.70;1.60;;;16.70;99.90;;;;;;5018381;28;20227;-74
2024/02/15 13:12:38;;;;;;;1.75;1.65;;;16.70;99.90;;;;;;5017072;28;20753;-74
2024/02/15 13:15:07;;;;;;;2.53;1.55;;;17.00;99.90;;;;;;5019279;28;20255;-74
2024/02/15 13:17:34;;;;;;;2.17;1.92;;;17.20;99.90;;;;;;5017144;28;20219;-74
2024/02/15 13:20:05;;;;;;;1.70;1.50;;;17.10;99.90;;;;;;5018936;28;20926;-74
2024/02/15 13:22:36;;;;;;;1.70;1.60;;;16.90;99.90;;;;;;5013065;28;20215;-74
2024/02/15 13:25:04;;;;;;;1.60;1.50;;;17.00;99.90;;;;;;5016556;28;20227;-74
2024/02/15 13:27:31;;;;;;;2.08;1.88;;;16.80;99.90;;;;;;5013928;28;20227;-73
2024/02/15 13:29:58;;;;;;;1.75;1.65;;;16.60;99.90;;;;;;5022615;28;20210;-74
2024/02/15 13:32:25;;;;;;;1.13;1.13;;;16.60;99.90;;;;;;5017506;28;20243;-74